createdAt,value
2019-03-31T00:02:24.637Z,8.38
2019-03-31T00:04:59.032Z,8.42
2019-03-31T00:07:33.810Z,8.31
2019-03-31T00:10:06.860Z,8.41
2019-03-31T00:12:40.878Z,8.35
2019-03-31T00:15:14.362Z,8.32
2019-03-31T00:17:48.598Z,8.24
2019-03-31T00:20:21.972Z,8.15
2019-03-31T00:22:56.342Z,8.15
2019-03-31T00:25:30.691Z,8.07
2019-03-31T00:28:03.450Z,7.87
2019-03-31T00:30:37.336Z,8.00
2019-03-31T00:33:11.599Z,7.83
2019-03-31T00:35:44.791Z,7.68
2019-03-31T00:38:19.352Z,7.57
2019-03-31T00:40:53.455Z,7.53
2019-03-31T00:43:27.835Z,7.46
2019-03-31T00:46:02.049Z,7.51
2019-03-31T00:48:36.216Z,7.50
2019-03-31T00:51:09.403Z,7.49
2019-03-31T00:53:42.711Z,7.49
2019-03-31T00:56:16.499Z,7.53
2019-03-31T00:58:53.085Z,7.71
2019-03-31T01:01:37.073Z,7.66
2019-03-31T01:04:15.144Z,7.67
2019-03-31T01:06:52.952Z,7.81
2019-03-31T01:09:32.967Z,7.70
2019-03-31T01:12:06.697Z,7.55
2019-03-31T01:14:42.680Z,7.49
2019-03-31T01:17:18.868Z,7.45
2019-03-31T01:19:54.556Z,7.47
2019-03-31T01:22:28.661Z,7.37
2019-03-31T01:25:02.972Z,7.32
2019-03-31T01:27:38.526Z,7.31
2019-03-31T01:30:12.568Z,7.28
2019-03-31T01:32:47.413Z,7.24
2019-03-31T01:35:21.243Z,7.12
2019-03-31T01:37:55.375Z,7.08
2019-03-31T01:40:28.571Z,7.15
2019-03-31T01:43:02.207Z,7.17
2019-03-31T01:45:36.220Z,7.13
2019-03-31T01:48:10.333Z,7.23
2019-03-31T01:50:44.387Z,7.14
2019-03-31T01:53:18.378Z,7.35
2019-03-31T01:55:51.964Z,7.26
2019-03-31T01:58:25.906Z,7.09
2019-03-31T02:01:01.172Z,7.33
2019-03-31T02:03:34.393Z,7.35
2019-03-31T02:06:08.407Z,7.36
2019-03-31T02:08:42.611Z,7.37
2019-03-31T02:11:16.115Z,7.41
2019-03-31T02:13:49.373Z,7.38
2019-03-31T02:16:23.624Z,7.22
2019-03-31T02:18:57.757Z,7.35
2019-03-31T02:21:31.400Z,7.30
2019-03-31T02:24:05.065Z,7.35
2019-03-31T02:26:38.658Z,7.30
2019-03-31T02:29:13.635Z,7.33
2019-03-31T02:31:48.050Z,7.31
2019-03-31T02:34:21.196Z,7.33
2019-03-31T02:36:55.004Z,7.34
2019-03-31T02:39:29.040Z,7.35
2019-03-31T02:42:02.618Z,7.43
2019-03-31T02:44:36.241Z,7.36
2019-03-31T02:47:09.858Z,7.29
2019-03-31T02:49:43.358Z,7.23
2019-03-31T02:52:16.153Z,7.24
2019-03-31T02:54:50.483Z,7.18
2019-03-31T02:57:24.607Z,7.33
2019-03-31T02:59:59.476Z,7.19
2019-03-31T03:02:42.202Z,7.06
2019-03-31T03:05:19.546Z,7.00
2019-03-31T03:07:48.986Z,7.05
2019-03-31T03:10:24.118Z,6.82
2019-03-31T03:13:01.135Z,6.63
2019-03-31T03:15:39.281Z,6.52
2019-03-31T03:18:13.435Z,6.43
2019-03-31T03:20:47.818Z,6.37
2019-03-31T03:23:22.852Z,6.31
2019-03-31T03:25:56.963Z,6.25
2019-03-31T03:28:31.095Z,6.33
2019-03-31T03:31:05.189Z,6.31
2019-03-31T03:33:39.675Z,6.33
2019-03-31T03:36:13.622Z,6.19
2019-03-31T03:38:47.766Z,6.38
2019-03-31T03:41:21.385Z,6.18
2019-03-31T03:43:58.050Z,6.16
2019-03-31T03:46:30.942Z,6.13
2019-03-31T03:49:05.052Z,6.12
2019-03-31T03:51:38.448Z,6.21
2019-03-31T03:54:12.248Z,6.29
2019-03-31T03:56:45.777Z,6.27
2019-03-31T03:59:19.688Z,6.25
2019-03-31T04:01:54.357Z,6.24
2019-03-31T04:04:28.541Z,6.14
2019-03-31T04:07:02.096Z,6.15
2019-03-31T04:09:35.712Z,6.14
2019-03-31T04:12:09.848Z,6.05
2019-03-31T04:14:44.031Z,6.01
2019-03-31T04:17:18.186Z,5.91
2019-03-31T04:19:51.917Z,5.92
2019-03-31T04:22:25.569Z,5.86
2019-03-31T04:24:59.639Z,5.83
2019-03-31T04:27:33.572Z,5.75
2019-03-31T04:30:07.500Z,5.72
2019-03-31T04:32:41.412Z,5.66
2019-03-31T04:35:15.153Z,5.55
2019-03-31T04:37:49.837Z,5.58
2019-03-31T04:40:23.090Z,5.60
2019-03-31T04:42:56.922Z,5.56
2019-03-31T04:45:30.757Z,5.54
2019-03-31T04:48:03.902Z,5.41
2019-03-31T04:50:37.604Z,5.13
2019-03-31T04:53:11.558Z,5.12
2019-03-31T04:55:45.417Z,5.12
2019-03-31T04:58:19.318Z,5.00
2019-03-31T05:00:52.871Z,5.12
2019-03-31T05:03:26.813Z,5.16
2019-03-31T05:06:00.802Z,5.15
2019-03-31T05:08:34.824Z,5.12
2019-03-31T05:11:08.264Z,5.13
2019-03-31T05:13:42.155Z,5.15
2019-03-31T05:16:15.225Z,5.09
2019-03-31T05:18:48.578Z,5.12
2019-03-31T05:21:22.770Z,5.14
2019-03-31T05:23:56.390Z,5.23
2019-03-31T05:26:29.909Z,5.17
2019-03-31T05:29:03.839Z,5.11
2019-03-31T05:31:37.754Z,5.18
2019-03-31T05:34:19.069Z,5.23
2019-03-31T05:36:46.666Z,5.28
2019-03-31T05:39:20.267Z,5.23
2019-03-31T05:41:53.408Z,5.25
2019-03-31T05:44:27.492Z,5.40
2019-03-31T05:47:01.564Z,5.47
2019-03-31T05:49:35.603Z,5.36
2019-03-31T05:52:08.707Z,5.43
2019-03-31T05:54:42.317Z,5.47
2019-03-31T05:57:16.481Z,5.37
2019-03-31T05:59:50.961Z,5.42
2019-03-31T06:02:24.704Z,5.35
2019-03-31T06:04:59.058Z,5.40
2019-03-31T06:07:33.056Z,5.48
2019-03-31T06:10:07.289Z,5.47
2019-03-31T06:12:41.206Z,5.64
2019-03-31T06:15:15.293Z,5.65
2019-03-31T06:17:47.981Z,5.73
2019-03-31T06:20:21.322Z,5.79
2019-03-31T06:22:55.743Z,5.94
2019-03-31T06:25:29.219Z,6.03
2019-03-31T06:28:03.509Z,5.92
2019-03-31T06:30:37.126Z,5.74
2019-03-31T06:33:10.830Z,5.88
2019-03-31T06:35:44.510Z,5.75
2019-03-31T06:38:17.817Z,5.88
2019-03-31T06:40:53.071Z,6.06
2019-03-31T06:43:26.872Z,6.29
2019-03-31T06:46:00.185Z,6.31
2019-03-31T06:48:34.407Z,6.37
2019-03-31T06:51:08.010Z,6.12
2019-03-31T06:53:41.745Z,6.26
2019-03-31T06:56:15.815Z,6.16
2019-03-31T06:58:49.667Z,6.36
2019-03-31T07:01:23.340Z,6.57
2019-03-31T07:03:56.919Z,6.63
2019-03-31T07:06:30.033Z,6.83
2019-03-31T07:09:05.866Z,7.03
2019-03-31T07:11:40.656Z,7.13
2019-03-31T07:14:14.506Z,7.06
2019-03-31T07:16:48.537Z,7.01
2019-03-31T07:19:22.123Z,6.90
2019-03-31T07:21:55.734Z,7.14
2019-03-31T07:24:29.647Z,7.30
2019-03-31T07:27:03.681Z,7.31
2019-03-31T07:29:37.956Z,7.19
2019-03-31T07:32:11.229Z,7.13
2019-03-31T07:34:44.752Z,7.12
2019-03-31T07:37:18.906Z,7.44
2019-03-31T07:39:52.962Z,7.63
2019-03-31T07:42:27.396Z,8.05
2019-03-31T07:45:01.538Z,8.59
2019-03-31T07:47:36.171Z,8.42
2019-03-31T07:50:12.068Z,8.92
2019-03-31T07:52:46.316Z,9.17
2019-03-31T07:55:20.470Z,8.99
2019-03-31T07:57:54.677Z,8.97
2019-03-31T08:00:30.264Z,9.21
2019-03-31T08:03:03.908Z,9.06
2019-03-31T08:05:39.155Z,9.41
2019-03-31T08:08:12.754Z,9.50
2019-03-31T08:10:46.743Z,9.16
2019-03-31T08:13:20.267Z,8.90
2019-03-31T08:15:53.651Z,9.00
2019-03-31T08:18:28.294Z,8.73
2019-03-31T08:21:02.548Z,8.52
2019-03-31T08:23:36.026Z,8.38
2019-03-31T08:26:11.151Z,8.66
2019-03-31T08:28:44.631Z,8.75
2019-03-31T08:31:18.217Z,8.85
2019-03-31T08:33:51.464Z,8.85
2019-03-31T08:36:25.548Z,8.96
2019-03-31T08:38:59.311Z,9.06
2019-03-31T08:41:33.486Z,8.97
2019-03-31T08:44:06.654Z,8.99
2019-03-31T08:46:41.308Z,9.33
2019-03-31T08:49:15.156Z,9.61
2019-03-31T08:51:49.013Z,10.07
2019-03-31T08:54:23.155Z,9.67
2019-03-31T08:56:56.891Z,10.07
2019-03-31T08:59:31.302Z,10.28
2019-03-31T09:02:24.467Z,10.10
2019-03-31T09:04:58.019Z,9.77
2019-03-31T09:07:32.390Z,9.25
2019-03-31T09:10:08.910Z,9.05
2019-03-31T09:12:41.827Z,9.11
2019-03-31T09:15:15.497Z,9.38
2019-03-31T09:17:49.382Z,9.62
2019-03-31T09:20:23.064Z,9.72
2019-03-31T09:22:56.480Z,9.74
2019-03-31T09:25:30.989Z,9.80
2019-03-31T09:28:04.343Z,9.70
2019-03-31T09:30:37.491Z,9.56
2019-03-31T09:33:11.618Z,9.31
2019-03-31T09:35:45.379Z,9.27
2019-03-31T09:38:19.364Z,9.38
2019-03-31T09:40:53.492Z,9.37
2019-03-31T09:43:27.109Z,9.09
2019-03-31T09:46:00.807Z,9.16
2019-03-31T09:48:34.848Z,9.29
2019-03-31T09:51:08.478Z,9.50
2019-03-31T09:53:42.587Z,8.96
2019-03-31T09:56:16.622Z,9.01
2019-03-31T09:58:50.300Z,9.11
2019-03-31T10:01:24.752Z,9.33
2019-03-31T10:03:58.387Z,9.43
2019-03-31T10:06:32.704Z,9.70
2019-03-31T10:09:07.450Z,9.97
2019-03-31T10:11:41.954Z,9.96
2019-03-31T10:14:16.478Z,9.95
2019-03-31T10:16:49.749Z,9.79
2019-03-31T10:19:23.790Z,10.40
2019-03-31T10:21:58.123Z,10.49
2019-03-31T10:24:32.555Z,10.65
2019-03-31T10:27:06.685Z,11.08
2019-03-31T10:29:39.960Z,10.65
2019-03-31T10:32:14.500Z,9.75
2019-03-31T10:34:48.642Z,10.42
2019-03-31T10:37:22.519Z,9.43
2019-03-31T10:39:56.515Z,8.82
2019-03-31T10:42:31.319Z,9.45
2019-03-31T10:45:04.848Z,9.69
2019-03-31T10:47:38.278Z,9.80
2019-03-31T10:50:15.132Z,9.79
2019-03-31T10:52:51.616Z,9.88
2019-03-31T10:55:26.530Z,9.59
2019-03-31T17:32:02.233Z,8.16
2019-03-31T17:34:35.831Z,8.08
2019-03-31T17:37:09.351Z,8.02
2019-03-31T17:39:43.334Z,7.90
2019-03-31T17:42:17.315Z,7.90
2019-03-31T17:44:50.078Z,7.86
2019-03-31T17:47:22.906Z,7.79
2019-03-31T17:49:55.825Z,7.67
2019-03-31T17:52:29.985Z,7.57
2019-03-31T17:55:03.358Z,7.55
2019-03-31T17:57:36.487Z,7.42
2019-03-31T18:00:10.363Z,7.29
2019-03-31T18:02:43.906Z,7.26
2019-03-31T18:05:16.815Z,7.22
2019-03-31T18:07:50.082Z,7.13
2019-03-31T18:10:22.600Z,7.07
2019-03-31T18:12:56.594Z,6.83
2019-03-31T18:15:30.315Z,6.74
2019-03-31T18:18:03.050Z,6.82
2019-03-31T18:20:36.646Z,6.76
2019-03-31T18:23:09.594Z,6.69
2019-03-31T18:25:43.175Z,6.63
2019-03-31T18:28:23.026Z,6.47
2019-03-31T18:30:57.194Z,6.38
2019-03-31T18:33:30.372Z,6.22
2019-03-31T18:36:03.872Z,6.19
2019-03-31T18:38:37.290Z,6.11
2019-03-31T18:41:10.441Z,5.99
2019-03-31T18:43:51.235Z,5.99
2019-03-31T18:46:18.641Z,6.05
2019-03-31T18:48:51.847Z,5.92
2019-03-31T18:51:24.729Z,5.89
2019-03-31T18:54:32.825Z,5.85
2019-03-31T18:57:29.384Z,5.76
2019-03-31T19:00:14.363Z,5.70
2019-03-31T19:02:59.630Z,5.67
2019-03-31T19:05:55.005Z,5.64
2019-03-31T19:08:46.385Z,5.64
2019-03-31T19:11:37.479Z,5.45
2019-03-31T19:14:39.645Z,5.38
2019-03-31T19:17:36.066Z,5.32
2019-03-31T19:20:43.940Z,5.20
2019-03-31T19:23:49.081Z,5.17
2019-03-31T19:26:48.411Z,4.97
2019-03-31T19:29:42.315Z,4.94
2019-03-31T19:32:24.076Z,4.89
2019-03-31T19:35:10.451Z,4.98
2019-03-31T19:37:51.622Z,4.96
2019-03-31T19:41:04.515Z,4.87
2019-03-31T19:44:07.259Z,4.85
2019-03-31T19:46:52.022Z,4.75
2019-03-31T19:49:37.313Z,4.60
2019-03-31T19:52:35.058Z,4.61
2019-03-31T19:55:32.844Z,4.55
2019-03-31T19:58:24.258Z,4.50
2019-03-31T20:01:06.082Z,4.36
2019-03-31T20:03:58.241Z,4.29
2019-03-31T20:06:39.525Z,4.19
2019-03-31T20:09:35.870Z,4.15
2019-03-31T20:12:20.183Z,4.17
2019-03-31T20:15:24.531Z,4.08
2019-03-31T20:18:29.285Z,4.11
2019-03-31T20:21:16.123Z,4.06
2019-03-31T20:24:17.882Z,3.93
2019-03-31T20:26:57.001Z,3.93
2019-03-31T20:29:49.157Z,3.85
2019-03-31T20:32:40.987Z,3.81
2019-03-31T20:35:46.953Z,3.66
2019-03-31T20:38:55.347Z,3.56
2019-03-31T20:41:49.928Z,3.37
2019-03-31T20:44:23.475Z,3.28
2019-03-31T20:46:56.709Z,3.38
2019-03-31T20:49:30.413Z,3.35
2019-03-31T20:52:03.449Z,3.24
2019-03-31T20:54:36.904Z,3.25
2019-03-31T20:57:10.566Z,3.29
2019-03-31T20:59:44.699Z,3.13
2019-03-31T21:02:17.926Z,3.17
2019-03-31T21:04:51.790Z,3.10
2019-03-31T21:07:25.987Z,3.09
2019-03-31T21:09:59.597Z,3.03
2019-03-31T21:12:35.944Z,2.94
2019-03-31T21:15:08.818Z,2.91
2019-03-31T21:17:41.640Z,2.74
2019-03-31T21:20:15.216Z,2.62
2019-03-31T21:22:48.323Z,2.67
2019-03-31T21:25:21.920Z,2.66
2019-03-31T21:27:54.276Z,2.61
2019-03-31T21:30:27.755Z,2.57
2019-03-31T21:33:01.637Z,2.47
2019-03-31T21:35:34.262Z,2.43
2019-03-31T21:38:07.286Z,2.50
2019-03-31T21:40:40.443Z,2.48
2019-03-31T21:43:13.273Z,2.36
2019-03-31T21:45:46.309Z,2.41
2019-03-31T21:48:19.599Z,2.47
2019-03-31T21:50:52.223Z,2.43
2019-03-31T21:53:25.584Z,2.67
2019-03-31T21:55:58.866Z,2.61
2019-03-31T21:58:31.825Z,2.53
2019-03-31T22:01:05.154Z,2.59
2019-03-31T22:03:38.180Z,2.61
2019-03-31T22:06:11.799Z,2.55
2019-03-31T22:08:44.947Z,2.54
2019-03-31T22:11:17.999Z,2.42
2019-03-31T22:13:50.986Z,2.39
2019-03-31T22:16:25.201Z,2.41
2019-03-31T22:18:58.505Z,2.38
2019-03-31T22:21:31.495Z,2.44
2019-03-31T22:24:04.050Z,2.47
2019-03-31T22:26:38.076Z,2.39
2019-03-31T22:29:11.231Z,2.32
2019-03-31T22:31:45.381Z,2.28
2019-03-31T22:34:17.962Z,2.20
2019-03-31T22:36:51.277Z,2.27
2019-03-31T22:39:24.411Z,2.20
2019-03-31T22:41:58.171Z,2.09
2019-03-31T22:44:31.213Z,2.16
2019-03-31T22:47:04.816Z,2.14
2019-03-31T22:49:37.770Z,2.09
2019-03-31T22:52:10.757Z,2.04
2019-03-31T22:54:44.338Z,1.98
2019-03-31T22:57:17.900Z,1.94
2019-03-31T22:59:51.256Z,1.99
2019-03-31T23:02:24.266Z,1.99
2019-03-31T23:04:57.689Z,1.83
2019-03-31T23:07:31.035Z,1.73
2019-03-31T23:10:04.287Z,1.79
2019-03-31T23:12:37.172Z,1.66
2019-03-31T23:15:09.850Z,1.56
2019-03-31T23:17:43.347Z,1.43
2019-03-31T23:20:16.082Z,1.44
2019-03-31T23:22:49.095Z,1.34
2019-03-31T23:25:22.001Z,1.33
2019-03-31T23:27:55.042Z,1.17
2019-03-31T23:30:27.659Z,1.23
2019-03-31T23:33:00.980Z,1.21
2019-03-31T23:35:33.978Z,1.30
2019-03-31T23:38:06.963Z,1.26
2019-03-31T23:40:39.969Z,1.17
2019-03-31T23:43:12.185Z,1.05
2019-03-31T23:45:45.517Z,0.92
2019-03-31T23:48:19.918Z,0.92
2019-03-31T23:50:53.458Z,0.82
2019-03-31T23:53:26.067Z,0.73
2019-03-31T23:55:59.088Z,0.65
2019-03-31T23:58:32.394Z,0.63
